Burt, Illinois
Current Conditions -  °F | °C
As of 2:55 PM on Tuesday 21 Oct 2014 (Local Time) from KAAA Reporting Station
Clear Clear  
Wind Chill: 61°   Ceiling: Unl
Heat Index: 61°   Visibility: 10mi
Dew Point: 40°   Wind: 8mph
Humidity: 46%   Direction: 10°N
Pressure: 30.13"   Gusts: 17mph
Location:  40.3088°N, 89.3237°W
Report Text: KAAA 211955Z AUTO 01007G15KT 10SM CLR 16/04 A3013 RMK AO2 T01590044
Loading
Personal Weather Stations






























Interactive Weather Map
Tropical Storm Tracking
New forecast layout! Learn more

10-Day Weather Forecast

Advertisements
Track Severe Weather on mobile